Newton, WV

7:26 AM EDT on September 05, 2015 (GMT -0400)
Clay County, West Virginia | | Change Station
CLOSE
Current Station
Personal Weather Station
Location: Procious, WV
Elevation: 784 ft
Nearby Weather Stations

Elev 784 ft 38.48 °N, 81.16 °W | Updated 50 seconds ago

Clear
Clear
64.4 °F
Feels Like 64.4 °F
N
0.7
Wind Variable Wind from West
Gusts 0.7 mph

Today
High -- | Low -- °F
--% Chance of Precip.
Yesterday
High -- | Low -- °F
Precip. -- in
6:57 AM 7:49 PM
Waning Gibbous, 49% visible
Pressure 30.15 in
Visibility 4.0 miles
Clouds Few 100 ft
Scattered Clouds 19000 ft
Dew Point 64 °F
Humidity 99%
Rainfall 0.00 in
Snow Depth Not available.
UV 0 out of 12
Pollen 9.60 out of 12
Air Quality Not available.
Flu Activity Not available.
SPECI KCRW 051109Z 13003KT 4SM BR FEW001 SCT190 19/18 A3015 RMK AO2 DNS VLY FG T01890178
Pressure 30.15 in
Visibility 4.0 miles
Clouds Few 100 ft
Scattered Clouds 19000 ft
Dew Point 64 °F
Humidity 99%
Rainfall 0.00 in
Snow Depth Not available.
UV 0 out of 12
Pollen 9.60 out of 12
Air Quality Not available.
Flu Activity Not available.
SPECI KCRW 051109Z 13003KT 4SM BR FEW001 SCT190 19/18 A3015 RMK AO2 DNS VLY FG T01890178

10-Day Weather Forecast

×

Almanac

Astronomy

Sep. 05, 2015 Rise Set
Actual Time
Civil Twilight
Nautical Twilight
Astronomical Twilight
Moon
Length of Visible Light
Length of Day
Tomorrow will be .
, % of the Moon is Illuminated

Today's Extremes

State Highs State Lows

Community

WunderPhotos

Upload Photos

1,852,445 photos uploaded!

WunderBlogs® & News

Nearby

Air Quality

  Air Quality AQ Index Pollutant
Not available.

Snow Depth

Station Depth Elevation

Earthquake Activity

City Distance Mag. Time & Date
Minimum magnitude displayed is 2.5.

Coastal Water Temperatures

Place Temperature

Stations

Nearby Weather Stations

Station Location Temp. Windchill Dew Point Humidity Wind Precip. Elev Updated Type